TimeEST,TemperatureF,Dew PointF,Humidity,Sea Level PressureIn,VisibilityMPH,Wind Direction,Wind SpeedMPH,Gust SpeedMPH,PrecipitationIn,Events,Conditions,WindDirDegrees,DateUTC
12:53 AM,34.0,21.9,61,29.89,10.0,WSW,8.1,19.6,N/A,,Overcast,240,2013-01-05 05:53:00
1:53 AM,32.0,24.1,73,29.91,10.0,South,8.1,-,0.00,,Overcast,190,2013-01-05 06:53:00
2:53 AM,32.0,23.0,69,29.93,10.0,SSW,8.1,-,N/A,,Overcast,200,2013-01-05 07:53:00
3:53 AM,30.9,23.0,72,29.94,10.0,South,9.2,-,N/A,,Overcast,180,2013-01-05 08:53:00
4:53 AM,33.1,21.9,64,29.97,10.0,WSW,5.8,-,N/A,,Overcast,240,2013-01-05 09:53:00
5:53 AM,36.0,19.9,52,30.01,10.0,WNW,4.6,-,N/A,,Overcast,290,2013-01-05 10:53:00
6:53 AM,35.1,19.9,54,30.05,10.0,NW,9.2,-,N/A,,Overcast,320,2013-01-05 11:53:00
7:53 AM,33.1,21.9,64,30.10,10.0,North,13.8,-,N/A,,Overcast,360,2013-01-05 12:53:00
8:53 AM,32.0,18.0,56,30.17,10.0,NNW,11.5,-,N/A,,Mostly Cloudy,340,2013-01-05 13:53:00
9:53 AM,32.0,16.0,52,30.20,10.0,North,13.8,23.0,N/A,,Overcast,350,2013-01-05 14:53:00
10:53 AM,33.1,16.0,50,30.23,10.0,North,10.4,19.6,N/A,,Clear,350,2013-01-05 15:53:00
11:53 AM,33.1,14.0,46,30.22,10.0,North,12.7,-,N/A,,Clear,10,2013-01-05 16:53:00
12:53 PM,34.0,15.1,46,30.22,10.0,North,11.5,-,N/A,,Clear,10,2013-01-05 17:53:00
1:53 PM,35.1,12.9,40,30.21,10.0,NNE,3.5,-,N/A,,Clear,20,2013-01-05 18:53:00
2:53 PM,34.0,14.0,44,30.21,10.0,Calm,Calm,-,N/A,,Clear,0,2013-01-05 19:53:00
3:53 PM,33.1,14.0,46,30.22,10.0,North,3.5,-,N/A,,Clear,350,2013-01-05 20:53:00
4:53 PM,30.0,14.0,51,30.23,10.0,NNE,3.5,-,N/A,,Clear,30,2013-01-05 21:53:00
5:53 PM,26.1,14.0,60,30.26,10.0,East,4.6,-,N/A,,Clear,100,2013-01-05 22:53:00
6:53 PM,23.0,12.9,65,30.26,10.0,Calm,Calm,-,N/A,,Clear,0,2013-01-05 23:53:00
7:53 PM,16.0,10.0,77,30.26,10.0,Calm,Calm,-,N/A,,Clear,0,2013-01-06 00:53:00
8:53 PM,16.0,10.0,77,30.25,10.0,Calm,Calm,-,N/A,,Clear,0,2013-01-06 01:53:00
9:53 PM,14.0,9.0,80,30.24,10.0,Calm,Calm,-,N/A,,Clear,0,2013-01-06 02:53:00
10:53 PM,14.0,9.0,80,30.22,10.0,North,3.5,-,N/A,,Clear,360,2013-01-06 03:53:00
11:53 PM,14.0,9.0,80,30.20,10.0,Calm,Calm,-,N/A,,Clear,0,2013-01-06 04:53:00